TAF LFST
LFST 081741Z 0818/0918 21005KT 8000 SCT035 BKN100 TEMPO 0818/0906 4000 BR PROB30 TEMPO 0820/0902 1500 BR BKN003=
METAR LFST
LFST 082030Z AUTO 16002KT 7000 SCT039 OVC160 02/01 Q1003 TEMPO 1500 BR BKN003=
LFST 082000Z AUTO 22002KT 7000 FEW037 BKN150 03/02 Q1003 TEMPO 1500 BR BKN003=
LFST 081930Z AUTO VRB02KT 5000 BR FEW054 OVC150 03/02 Q1002 TEMPO 1500 BR BKN003=
LFST 081900Z AUTO 21003KT 4200 BR NSC 03/02 Q1002 TEMPO 1500 BR BKN003=
LFST 081830Z AUTO 22003KT 5000 BR NSC 03/03 Q1002 TEMPO 1500 BR BKN003=
WC LFST
WS LFST
WV LFST